Terminal Aerodrome Forecast
Issued by NWS Wichita, KS

Home | Current Version | Previous Version | Graphics & Text | Print | Product List | Glossary On
Versions: 1 2 3 4 5 6 7 8 9 10 11 12 13 14 15 16 17
000
FTUS43 KICT 300520
TAFICT
TAF
KICT 300520Z 3006/3106 04004KT P6SM SCT050 BKN120
      TEMPO 3010/3014 6SM BR SCT012
     FM301600 14005KT P6SM SCT050 BKN120=

USA.gov is the U.S. government's official web portal to all federal, state and local government web resources and services.